Time;durP1;ratioP1;P1;durP2;ratioP2;P2;SDS_P1;SDS_P2;PMS_P1;PMS_P2;Temp;Humidity;BMP_temperature;BMP_pressure;BME280_temperature;BME280_humidity;BME280_pressure;Samples;Min_cycle;Max_cycle;Signal;HPM_P1;HPM_P2
2021/10/23 00:01:39;;;;;;;14.23;1.92;;;;;;;5.72;79.42;100997.88;5025632;28;20042;-79
2021/10/23 00:04:04;;;;;;;10.90;1.55;;;;;;;5.70;78.95;101003.06;5026490;28;20066;-79
2021/10/23 00:06:30;;;;;;;10.50;1.85;;;;;;;5.66;79.42;101011.72;5024965;28;20034;-80
2021/10/23 00:08:55;;;;;;;12.02;1.83;;;;;;;5.64;79.53;101008.19;5022487;28;20113;-80
2021/10/23 00:11:20;;;;;;;14.15;2.40;;;;;;;5.61;79.41;101022.94;5023331;28;20400;-79
2021/10/23 00:13:46;;;;;;;6.97;1.48;;;;;;;5.56;80.19;101024.59;5027733;28;20460;-79
2021/10/23 00:16:11;;;;;;;8.23;1.83;;;;;;;5.55;79.85;101028.03;5024097;28;20033;-79
2021/10/23 00:18:37;;;;;;;7.22;1.65;;;;;;;5.52;80.55;101025.34;5026825;28;20029;-79
2021/10/23 00:21:03;;;;;;;11.85;1.58;;;;;;;5.51;80.35;101034.06;5023254;28;20146;-80
2021/10/23 00:23:28;;;;;;;6.68;2.22;;;;;;;5.46;80.79;101034.84;5026454;28;20034;-79
2021/10/23 00:25:54;;;;;;;8.10;1.77;;;;;;;5.47;80.45;101041.81;5023841;28;20043;-79
2021/10/23 00:28:20;;;;;;;11.80;1.90;;;;;;;5.43;80.89;101042.63;5025419;28;20124;-79
2021/10/23 00:30:45;;;;;;;11.45;1.50;;;;;;;5.44;80.57;101048.72;5026020;28;20064;-79
2021/10/23 00:33:10;;;;;;;8.50;1.20;;;;;;;5.39;80.83;101042.50;5021198;28;20565;-79
2021/10/23 00:35:35;;;;;;;6.55;1.50;;;;;;;5.36;80.85;101048.56;5020085;28;20539;-79
2021/10/23 00:38:01;;;;;;;10.18;2.28;;;;;;;5.36;80.82;101047.69;5020766;28;20185;-80
2021/10/23 00:40:27;;;;;;;15.38;3.13;;;;;;;5.35;80.92;101048.53;5023713;28;20073;-80
2021/10/23 00:42:53;;;;;;;6.85;1.45;;;;;;;5.31;80.74;101054.53;5013605;28;20069;-80
2021/10/23 00:45:19;;;;;;;8.07;1.67;;;;;;;5.28;81.05;101052.72;5025530;28;20061;-79
2021/10/23 00:47:45;;;;;;;8.90;1.60;;;;;;;5.23;80.75;101047.38;5023773;28;20431;-78
2021/10/23 00:50:10;;;;;;;10.15;1.35;;;;;;;5.27;80.87;101051.84;5019978;28;20030;-78
2021/10/23 00:52:35;;;;;;;11.27;1.85;;;;;;;5.22;81.16;101047.38;5021824;28;20041;-77
2021/10/23 00:55:01;;;;;;;8.27;1.70;;;;;;;5.29;80.45;101054.50;5015254;28;20051;-79
2021/10/23 00:57:26;;;;;;;9.57;1.83;;;;;;;5.28;80.58;101051.00;5025275;28;20099;-78
2021/10/23 00:59:51;;;;;;;9.00;1.10;;;;;;;5.30;80.69;101058.00;5023782;28;20044;-78
2021/10/23 01:02:17;;;;;;;7.18;1.85;;;;;;;5.26;80.36;101057.91;5027106;28;20022;-79
2021/10/23 01:04:42;;;;;;;14.07;1.92;;;;;;;5.23;80.76;101063.09;5031193;28;20033;-78
2021/10/23 01:07:08;;;;;;;11.75;1.13;;;;;;;5.23;80.60;101062.19;5016514;28;20038;-78
2021/10/23 01:09:37;;;;;;;8.43;1.10;;;;;;;5.17;81.11;101062.06;5027256;28;20052;-79
2021/10/23 01:12:08;;;;;;;9.88;1.40;;;;;;;5.16;81.67;101063.81;5023760;28;20092;-79
2021/10/23 01:14:33;;;;;;;10.38;1.50;;;;;;;5.18;81.67;101072.56;5026008;28;20026;-78
2021/10/23 01:16:58;;;;;;;7.28;1.33;;;;;;;5.16;81.75;101076.88;5023443;28;20503;-78
2021/10/23 01:19:24;;;;;;;8.05;1.10;;;;;;;5.20;82.12;101068.25;5026900;28;20451;-78
2021/10/23 01:21:50;;;;;;;7.65;0.95;;;;;;;5.18;81.48;101069.06;5018720;28;20342;-78
2021/10/23 01:24:17;;;;;;;9.00;1.70;;;;;;;5.18;81.60;101079.53;5013287;28;20036;-79
2021/10/23 01:26:43;;;;;;;8.90;1.25;;;;;;;5.20;81.93;101083.06;5026154;28;20131;-79
2021/10/23 01:29:12;;;;;;;7.32;1.20;;;;;;;5.19;81.72;101076.97;5023649;28;20072;-78
2021/10/23 01:31:38;;;;;;;9.60;1.35;;;;;;;5.14;81.97;101086.44;5026121;28;20120;-79
2021/10/23 01:34:14;;;;;;;5.35;0.93;;;;;;;5.11;82.20;101080.22;5023624;28;20076;-78
2021/10/23 01:36:42;;;;;;;9.40;1.30;;;;;;;5.10;82.70;101081.94;5019094;28;20039;-78
2021/10/23 01:39:07;;;;;;;6.70;2.25;;;;;;;5.09;82.64;101088.03;5019066;28;20037;-79
2021/10/23 01:41:32;;;;;;;6.90;1.00;;;;;;;5.06;82.50;101087.97;5025980;28;20163;-78
2021/10/23 01:43:58;;;;;;;7.97;1.88;;;;;;;5.00;82.62;101083.47;5022735;28;20069;-78
2021/10/23 01:46:23;;;;;;;8.18;1.80;;;;;;;5.00;83.27;101087.78;5025941;28;20040;-78
2021/10/23 01:48:48;;;;;;;8.85;1.80;;;;;;;5.01;83.36;101082.63;5017575;28;20045;-78
2021/10/23 01:51:14;;;;;;;6.55;1.30;;;;;;;5.05;83.93;101083.56;5024164;28;20045;-79
2021/10/23 01:53:39;;;;;;;7.50;1.40;;;;;;;5.10;83.58;101096.78;5023939;28;20140;-78
2021/10/23 01:56:04;;;;;;;10.50;1.48;;;;;;;5.08;83.74;101093.22;5023785;28;20045;-79
2021/10/23 01:58:30;;;;;;;8.38;1.50;;;;;;;5.10;84.08;101091.53;5024995;28;20037;-78
2021/10/23 02:00:56;;;;;;;8.10;1.60;;;;;;;5.10;84.42;101091.53;5020988;28;20033;-78
2021/10/23 02:03:21;;;;;;;9.68;1.80;;;;;;;5.14;84.00;101102.13;5012820;28;20105;-78
2021/10/23 02:05:46;;;;;;;8.05;1.23;;;;;;;5.12;84.78;101102.94;5019856;28;20057;-78
2021/10/23 02:08:12;;;;;;;7.65;2.00;;;;;;;5.17;84.54;101104.81;5025946;28;20041;-78
2021/10/23 02:10:37;;;;;;;10.18;1.60;;;;;;;5.19;84.77;101100.50;5022361;28;20621;-78
2021/10/23 02:13:02;;;;;;;7.47;1.02;;;;;;;5.26;84.57;101104.16;5024622;28;20116;-78
2021/10/23 02:15:28;;;;;;;6.28;1.42;;;;;;;5.26;84.63;101105.03;5023053;28;20517;-78
2021/10/23 02:17:53;;;;;;;9.70;1.55;;;;;;;5.26;84.13;101110.25;5023724;28;20041;-78
2021/10/23 02:20:19;;;;;;;6.10;2.50;;;;;;;5.34;84.28;101112.19;5023333;28;20496;-78
2021/10/23 02:22:44;;;;;;;14.13;1.55;;;;;;;5.32;84.25;101120.03;5013787;28;20046;-78
2021/10/23 02:25:11;;;;;;;5.80;1.10;;;;;;;5.30;84.10;101113.84;5024234;28;20476;-77
2021/10/23 02:27:37;;;;;;;10.57;1.30;;;;;;;5.41;84.16;101121.97;5011163;28;20034;-77
2021/10/23 02:30:07;;;;;;;9.13;1.90;;;;;;;5.39;84.20;101124.53;5014446;28;20403;-77
2021/10/23 02:32:33;;;;;;;10.32;1.63;;;;;;;5.45;84.00;101118.59;5020677;28;20025;-78
2021/10/23 02:34:59;;;;;;;10.18;3.20;;;;;;;5.45;83.81;101129.94;5014386;28;20041;-78
2021/10/23 02:37:25;;;;;;;10.85;1.98;;;;;;;5.44;83.79;101128.16;5016830;28;20038;-79
2021/10/23 02:39:50;;;;;;;7.82;1.65;;;;;;;5.44;83.71;101132.50;5012414;28;20116;-78
2021/10/23 02:42:15;;;;;;;9.00;1.58;;;;;;;5.51;83.12;101121.34;5022009;28;20041;-79
2021/10/23 02:44:41;;;;;;;8.55;1.52;;;;;;;5.52;82.99;101130.06;5024714;28;20034;-78
2021/10/23 02:47:07;;;;;;;11.73;1.67;;;;;;;5.52;82.86;101143.16;5021946;28;20443;-78
2021/10/23 02:49:33;;;;;;;5.05;1.13;;;;;;;5.52;82.89;101148.41;5024152;28;20036;-77
2021/10/23 02:51:58;;;;;;;7.03;1.85;;;;;;;5.61;82.52;101146.91;5022285;28;20504;-77
2021/10/23 02:54:23;;;;;;;8.82;1.58;;;;;;;5.59;82.21;101135.50;5023483;28;20266;-78
2021/10/23 02:56:49;;;;;;;8.80;1.88;;;;;;;5.53;82.56;101151.06;5023219;28;20033;-79
2021/10/23 02:59:14;;;;;;;9.85;1.75;;;;;;;5.52;82.35;101146.66;5022621;28;20084;-78
2021/10/23 03:01:39;;;;;;;10.80;1.60;;;;;;;5.59;82.21;101156.44;5020279;28;20092;-78
2021/10/23 03:04:05;;;;;;;9.10;1.60;;;;;;;5.57;81.61;101150.28;5024029;28;20045;-79
2021/10/23 03:06:31;;;;;;;10.15;1.45;;;;;;;5.56;81.82;101161.63;5015321;28;20034;-78
2021/10/23 03:08:56;;;;;;;8.65;1.95;;;;;;;5.58;81.99;101167.78;5021548;28;20472;-79
2021/10/23 03:11:21;;;;;;;10.65;1.85;;;;;;;5.59;81.31;101160.81;5018690;28;20037;-78
2021/10/23 03:13:47;;;;;;;9.82;1.77;;;;;;;5.68;80.93;101167.13;5022074;28;20037;-78
2021/10/23 03:16:12;;;;;;;8.50;2.40;;;;;;;5.65;80.81;101163.56;5020057;28;20088;-79
2021/10/23 03:18:38;;;;;;;10.82;2.15;;;;;;;5.69;80.75;101175.91;5014737;28;20492;-79
2021/10/23 03:21:04;;;;;;;10.88;1.35;;;;;;;5.72;80.81;101168.97;5022370;28;20038;-78
2021/10/23 03:23:29;;;;;;;9.63;1.80;;;;;;;5.66;80.95;101181.94;5022744;28;20044;-78
2021/10/23 03:25:54;;;;;;;17.30;2.63;;;;;;;5.60;81.33;101183.50;5023530;28;20042;-78
2021/10/23 03:28:20;;;;;;;11.85;1.88;;;;;;;5.48;82.11;101186.72;5013267;28;20077;-79
2021/10/23 03:30:45;;;;;;;9.07;2.47;;;;;;;5.49;81.85;101185.88;5022832;28;20030;-78
2021/10/23 03:33:14;;;;;;;11.50;1.73;;;;;;;5.37;82.48;101188.16;5026659;28;20044;-78
2021/10/23 03:35:39;;;;;;;11.15;2.08;;;;;;;5.35;82.07;101195.13;5026062;28;20112;-78
2021/10/23 03:38:05;;;;;;;9.38;1.63;;;;;;;5.28;81.95;101197.56;5028262;28;20506;-78
2021/10/23 03:40:31;;;;;;;12.52;1.92;;;;;;;5.18;82.29;101203.38;5024812;28;20049;-79
2021/10/23 03:42:56;;;;;;;7.25;1.55;;;;;;;5.10;82.87;101204.94;5028096;28;20033;-78
2021/10/23 03:45:21;;;;;;;17.40;2.33;;;;;;;5.01;83.44;101213.41;5024096;28;20034;-78
2021/10/23 03:47:47;;;;;;;10.25;1.90;;;;;;;4.97;83.65;101214.16;5028263;28;20025;-79
2021/10/23 03:50:12;;;;;;;9.80;1.40;;;;;;;4.89;83.92;101213.06;5025418;28;20049;-79
2021/10/23 03:52:38;;;;;;;10.48;1.52;;;;;;;4.84;84.08;101219.91;5023142;28;20535;-78
2021/10/23 03:55:04;;;;;;;8.73;1.60;;;;;;;4.81;83.97;101225.06;5026885;28;20037;-78
2021/10/23 03:57:30;;;;;;;10.93;1.10;;;;;;;4.73;84.04;101221.34;5026693;28;20033;-78
2021/10/23 03:59:55;;;;;;;12.98;2.05;;;;;;;4.71;84.77;101233.47;5016795;28;20492;-79
2021/10/23 04:02:21;;;;;;;12.70;1.60;;;;;;;4.71;84.50;101223.88;5025716;28;20157;-78
2021/10/23 04:04:46;;;;;;;12.43;1.52;;;;;;;4.71;84.98;101229.13;5024834;28;20083;-78
2021/10/23 04:07:12;;;;;;;10.40;1.85;;;;;;;4.78;85.24;101219.75;5024591;28;20119;-78
2021/10/23 04:09:37;;;;;;;8.40;1.30;;;;;;;4.79;85.19;101234.56;5026930;28;20542;-78
2021/10/23 04:12:02;;;;;;;7.47;1.52;;;;;;;4.76;85.35;101235.38;5020115;28;20124;-79
2021/10/23 04:14:28;;;;;;;8.38;1.92;;;;;;;4.75;84.85;101227.50;5019841;28;20148;-77
2021/10/23 04:16:54;;;;;;;8.70;1.52;;;;;;;4.71;84.77;101239.59;5026534;28;20029;-78
2021/10/23 04:19:19;;;;;;;13.43;1.50;;;;;;;4.68;85.62;101229.03;5019266;28;20042;-78
2021/10/23 04:21:44;;;;;;;6.53;1.48;;;;;;;4.65;85.49;101235.91;5022302;28;20038;-78
2021/10/23 04:24:10;;;;;;;12.32;1.63;;;;;;;4.62;85.01;101234.09;5025257;28;20132;-79
2021/10/23 04:26:37;;;;;;;11.32;2.40;;;;;;;4.55;85.96;101240.88;5022560;28;20587;-78
2021/10/23 04:29:02;;;;;;;11.20;2.03;;;;;;;4.64;85.86;101247.19;5026067;28;20049;-77
2021/10/23 04:31:27;;;;;;;10.70;1.60;;;;;;;4.63;85.84;101251.53;5026098;28;20037;-78
2021/10/23 04:33:53;;;;;;;9.18;1.90;;;;;;;4.74;85.67;101260.63;5026905;28;20120;-78
2021/10/23 04:36:19;;;;;;;8.15;1.50;;;;;;;4.74;85.42;101271.09;5025439;28;20092;-77
2021/10/23 04:38:44;;;;;;;10.80;1.70;;;;;;;4.74;85.30;101260.63;5027621;28;20041;-77
2021/10/23 04:41:09;;;;;;;14.20;1.80;;;;;;;4.72;85.23;101267.53;5022531;28;20030;-77
2021/10/23 04:43:35;;;;;;;9.85;1.50;;;;;;;4.69;85.39;101272.66;5026126;28;20466;-77
2021/10/23 04:46:01;;;;;;;9.45;1.63;;;;;;;4.76;85.30;101271.97;5023269;28;20470;-78
2021/10/23 04:48:26;;;;;;;10.18;2.03;;;;;;;4.74;85.68;101275.41;5022972;28;20037;-77
2021/10/23 04:50:51;;;;;;;13.13;1.67;;;;;;;4.72;85.43;101277.97;5027114;28;20029;-77
2021/10/23 04:53:17;;;;;;;12.68;2.40;;;;;;;4.76;85.64;101274.59;5025054;28;20038;-79
2021/10/23 04:55:42;;;;;;;14.85;2.40;;;;;;;4.78;85.47;101278.16;5020333;28;20160;-80
2021/10/23 04:58:07;;;;;;;17.60;2.28;;;;;;;4.75;85.36;101275.47;5022828;28;20041;-78
2021/10/23 05:00:33;;;;;;;12.60;2.03;;;;;;;4.81;85.03;101275.63;5020944;28;20041;-77
2021/10/23 05:02:58;;;;;;;13.35;1.88;;;;;;;4.84;84.95;101283.56;5026252;28;20041;-77
2021/10/23 05:05:23;;;;;;;9.98;1.83;;;;;;;4.82;85.35;101279.13;5024325;28;20161;-78
2021/10/23 05:07:49;;;;;;;12.07;2.42;;;;;;;4.82;85.08;101284.34;5028244;28;20040;-78
2021/10/23 05:10:14;;;;;;;8.93;1.92;;;;;;;4.82;84.82;101286.97;5019936;28;20045;-77
2021/10/23 05:12:40;;;;;;;14.18;2.55;;;;;;;4.84;84.89;101275.72;5014261;28;20042;-78
2021/10/23 05:15:06;;;;;;;11.23;2.95;;;;;;;4.82;84.84;101261.72;5017750;28;20047;-78
2021/10/23 05:17:32;;;;;;;17.77;2.30;;;;;;;4.83;84.72;101265.22;5025123;28;20046;-77
2021/10/23 05:19:57;;;;;;;10.52;1.95;;;;;;;4.88;84.91;101273.22;5027297;28;20040;-77
2021/10/23 05:22:22;;;;;;;11.23;2.80;;;;;;;4.91;84.66;101279.41;5026296;28;20396;-78
2021/10/23 05:24:48;;;;;;;12.40;1.88;;;;;;;4.86;84.46;101287.97;5026170;28;20038;-77
2021/10/23 05:27:14;;;;;;;10.38;2.08;;;;;;;4.87;84.28;101287.09;5025439;28;20542;-78
2021/10/23 05:29:40;;;;;;;11.45;2.15;;;;;;;4.77;84.60;101285.97;5025171;28;20485;-77
2021/10/23 05:32:05;;;;;;;12.68;1.60;;;;;;;4.76;84.92;101294.63;5027435;28;20077;-78
2021/10/23 05:34:30;;;;;;;12.18;2.17;;;;;;;4.75;84.70;101295.50;5024192;28;20057;-78
2021/10/23 05:36:56;;;;;;;10.75;2.40;;;;;;;4.66;84.99;101298.69;5027322;28;20507;-77
2021/10/23 05:39:21;;;;;;;10.23;2.20;;;;;;;4.68;85.53;101307.47;5018639;28;20515;-79
2021/10/23 05:41:46;;;;;;;11.82;2.15;;;;;;;4.69;85.03;101298.81;5013778;28;20072;-78
2021/10/23 05:44:12;;;;;;;13.52;2.65;;;;;;;4.65;85.09;101299.56;5024545;28;20048;-78
2021/10/23 05:46:37;;;;;;;13.73;2.03;;;;;;;4.62;85.49;101312.53;5025302;28;20037;-79
2021/10/23 05:49:02;;;;;;;8.82;2.00;;;;;;;4.62;85.27;101312.53;5030318;28;20030;-78
2021/10/23 05:51:28;;;;;;;13.40;2.47;;;;;;;4.59;85.18;101307.22;5027066;28;20038;-78
2021/10/23 05:53:53;;;;;;;9.82;2.10;;;;;;;4.56;85.50;101302.78;5027881;28;20038;-78
2021/10/23 05:56:19;;;;;;;9.38;1.90;;;;;;;4.57;85.68;101321.97;5031622;28;20037;-78
2021/10/23 05:58:44;;;;;;;15.20;2.80;;;;;;;4.57;85.86;101325.47;5024005;28;20047;-78
2021/10/23 06:01:09;;;;;;;18.13;3.03;;;;;;;4.55;86.04;101328.88;5033775;28;20033;-78
2021/10/23 06:03:36;;;;;;;10.23;2.10;;;;;;;4.60;85.91;101314.22;5027746;28;20041;-77
2021/10/23 06:06:03;;;;;;;15.32;2.67;;;;;;;4.65;85.51;101304.78;5025981;28;20116;-78
2021/10/23 06:08:30;;;;;;;10.27;2.45;;;;;;;4.67;85.91;101313.56;5022543;28;20049;-78
2021/10/23 06:10:55;;;;;;;15.15;3.20;;;;;;;4.69;85.45;101322.34;5024426;28;20029;-78
2021/10/23 06:13:22;;;;;;;11.07;2.53;;;;;;;4.75;85.82;101319.91;5027829;28;20219;-78
2021/10/23 06:15:48;;;;;;;14.10;2.75;;;;;;;4.81;84.99;101319.19;5027712;28;20092;-78
2021/10/23 06:18:14;;;;;;;10.60;2.53;;;;;;;4.83;85.12;101322.75;5025028;28;20041;-77
2021/10/23 06:20:39;;;;;;;15.65;2.95;;;;;;;4.80;85.45;101323.56;5041636;28;20093;-77
2021/10/23 06:23:04;;;;;;;11.18;2.75;;;;;;;4.90;85.17;101329.03;5027720;28;20045;-78
2021/10/23 06:25:30;;;;;;;13.02;2.28;;;;;;;4.96;84.94;101337.09;5029268;28;20044;-78
2021/10/23 06:27:57;;;;;;;21.42;2.85;;;;;;;4.99;84.58;101332.81;5018500;28;20053;-77
2021/10/23 06:30:24;;;;;;;12.82;2.95;;;;;;;4.95;84.81;101337.91;5019047;28;20072;-78
2021/10/23 06:32:52;;;;;;;12.15;2.33;;;;;;;5.00;84.52;101352.03;5017954;28;20049;-77
2021/10/23 06:35:18;;;;;;;11.32;1.90;;;;;;;5.02;84.78;101350.34;5020740;28;20503;-77
2021/10/23 06:37:43;;;;;;;12.43;2.13;;;;;;;5.06;84.57;101352.22;5022039;28;20042;-77
2021/10/23 06:40:09;;;;;;;15.57;2.92;;;;;;;5.14;84.36;101360.28;5011137;28;20459;-78
2021/10/23 06:42:37;;;;;;;16.80;2.47;;;;;;;5.19;84.02;101363.94;5021438;28;20052;-77
2021/10/23 06:45:03;;;;;;;12.00;2.50;;;;;;;5.23;83.77;101365.78;5017332;28;20030;-79
2021/10/23 06:47:29;;;;;;;12.65;2.03;;;;;;;5.25;84.06;101379.81;5027262;28;20127;-78
2021/10/23 06:49:55;;;;;;;14.32;2.60;;;;;;;5.36;83.33;101387.97;5029193;28;20062;-78
2021/10/23 06:52:20;;;;;;;10.77;2.05;;;;;;;5.42;83.63;101395.97;5025567;28;20045;-77
2021/10/23 06:54:45;;;;;;;12.60;2.60;;;;;;;5.47;83.15;101397.00;5038873;28;20096;-77
2021/10/23 06:57:11;;;;;;;16.17;3.15;;;;;;;5.58;82.99;101405.16;5012617;28;20500;-77
2021/10/23 06:59:37;;;;;;;10.52;2.35;;;;;;;5.61;82.87;101414.00;5013837;28;20026;-77
2021/10/23 07:02:03;;;;;;;14.98;2.45;;;;;;;5.67;82.80;101411.56;5023867;28;20034;-79
2021/10/23 07:04:28;;;;;;;17.30;3.90;;;;;;;5.70;82.39;101410.75;5016016;28;20022;-78
2021/10/23 07:06:53;;;;;;;12.15;2.50;;;;;;;5.75;82.39;101424.88;5014870;28;20309;-78
2021/10/23 07:09:19;;;;;;;18.30;3.50;;;;;;;5.85;82.43;101433.88;5032768;28;20033;-79
2021/10/23 07:11:44;;;;;;;12.73;2.92;;;;;;;5.87;81.74;101440.94;5027775;28;20041;-78
2021/10/23 07:14:10;;;;;;;13.95;3.38;;;;;;;6.03;81.93;101437.03;5032143;28;20033;-79
2021/10/23 07:16:35;;;;;;;12.40;2.75;;;;;;;6.07;81.34;101437.97;5031585;28;20062;-79
2021/10/23 07:19:00;;;;;;;13.65;3.28;;;;;;;6.21;81.52;101440.97;5030893;28;20101;-79
2021/10/23 07:21:26;;;;;;;12.32;2.47;;;;;;;6.37;80.30;101443.16;5027151;28;20038;-78
2021/10/23 07:23:53;;;;;;;10.65;2.10;;;;;;;6.55;80.10;101451.47;5031177;28;20048;-78
2021/10/23 07:26:19;;;;;;;10.00;2.78;;;;;;;6.64;79.22;101452.56;5012750;28;20415;-77
2021/10/23 07:28:44;;;;;;;13.10;2.65;;;;;;;6.72;79.45;101453.63;5033305;28;20034;-79
2021/10/23 07:31:10;;;;;;;11.10;2.40;;;;;;;6.70;78.99;101466.69;5022858;28;20029;-78
2021/10/23 07:33:35;;;;;;;14.48;2.50;;;;;;;6.61;78.96;101471.72;5032707;28;20042;-78
2021/10/23 07:36:00;;;;;;;11.55;2.42;;;;;;;6.70;78.78;101460.56;5024579;28;20037;-79
2021/10/23 07:38:26;;;;;;;16.10;3.40;;;;;;;6.75;79.08;101462.44;5027660;28;20049;-78
2021/10/23 07:40:51;;;;;;;10.13;2.78;;;;;;;6.90;78.45;101469.81;5029924;28;20048;-79
2021/10/23 07:43:17;;;;;;;12.20;3.17;;;;;;;7.30;77.59;101475.09;5017876;28;20037;-78
2021/10/23 07:45:42;;;;;;;18.35;4.80;;;;;;;7.38;77.75;101479.66;5034478;28;20504;-79
2021/10/23 07:48:08;;;;;;;15.07;3.13;;;;;;;7.47;76.04;101477.25;5034458;28;20041;-79
2021/10/23 07:50:33;;;;;;;21.35;3.80;;;;;;;7.54;75.76;101477.38;5027103;28;20125;-77
2021/10/23 07:53:02;;;;;;;13.50;3.30;;;;;;;7.51;75.48;101487.81;5010049;28;20443;-77
2021/10/23 07:55:28;;;;;;;12.00;3.75;;;;;;;7.50;75.96;101480.78;5032942;28;20090;-78
2021/10/23 07:57:53;;;;;;;12.93;4.03;;;;;;;7.59;76.05;101473.09;5027025;28;20086;-79
2021/10/23 08:00:19;;;;;;;12.55;4.20;;;;;;;7.58;75.43;101469.59;5032106;28;20471;-78
2021/10/23 08:02:58;;;;;;;16.92;3.80;;;;;;;7.61;75.32;101484.53;5033078;28;20500;-78
2021/10/23 08:05:25;;;;;;;13.05;3.58;;;;;;;7.58;76.34;101484.47;5027478;28;20033;-78
2021/10/23 08:07:51;;;;;;;14.05;3.67;;;;;;;7.59;76.26;101486.22;5035245;28;20068;-78
2021/10/23 08:10:17;;;;;;;14.75;4.07;;;;;;;7.60;76.00;101485.41;5034636;28;20044;-77
2021/10/23 08:12:44;;;;;;;16.55;4.57;;;;;;;7.72;76.07;101488.25;5022785;28;20037;-77
2021/10/23 08:15:09;;;;;;;14.82;3.53;;;;;;;7.87;74.48;101501.72;5033495;28;20034;-78
2021/10/23 08:17:35;;;;;;;13.13;2.42;;;;;;;7.96;73.12;101497.50;5026603;28;20049;-78
2021/10/23 08:20:00;;;;;;;12.73;2.90;;;;;;;8.01;73.44;101512.50;5034403;28;20038;-78
2021/10/23 08:22:26;;;;;;;11.57;3.17;;;;;;;8.13;73.28;101517.13;5032141;28;20045;-78
2021/10/23 08:24:54;;;;;;;16.35;4.50;;;;;;;8.28;72.28;101530.59;5012607;28;20045;-77
2021/10/23 08:27:20;;;;;;;12.45;2.80;;;;;;;8.30;71.92;101526.22;5023945;28;20044;-76
2021/10/23 08:29:46;;;;;;;10.13;2.88;;;;;;;8.45;71.35;101520.41;4999272;28;20037;-78
2021/10/23 08:32:15;;;;;;;10.80;2.75;;;;;;;8.61;70.18;101520.69;5021896;28;20176;-78
2021/10/23 08:34:42;;;;;;;14.88;3.15;;;;;;;8.75;70.01;101530.59;5025282;28;20033;-77
2021/10/23 08:37:07;;;;;;;13.82;3.40;;;;;;;8.94;69.40;101528.28;5000109;28;20481;-78
2021/10/23 08:39:33;;;;;;;11.27;2.58;;;;;;;9.14;69.34;101528.56;5003284;28;20049;-78
2021/10/23 08:41:59;;;;;;;15.95;3.13;;;;;;;9.24;68.78;101532.25;5023259;28;20048;-78
2021/10/23 08:44:27;;;;;;;12.13;2.92;;;;;;;9.19;67.32;101548.84;4999146;28;20042;-78
2021/10/23 08:46:53;;;;;;;16.08;3.92;;;;;;;9.14;67.86;101552.28;5027791;28;20030;-77
2021/10/23 08:49:20;;;;;;;10.10;2.85;;;;;;;9.14;68.57;101536.47;5019120;28;20029;-78
2021/10/23 08:51:45;;;;;;;9.80;1.83;;;;;;;9.09;67.00;101546.97;5003308;28;20056;-79
2021/10/23 08:54:14;;;;;;;6.60;2.15;;;;;;;9.01;68.17;101535.38;5009195;28;20037;-79
2021/10/23 08:56:41;;;;;;;11.30;2.55;;;;;;;8.99;68.77;101539.75;5027900;28;20026;-79
2021/10/23 08:59:06;;;;;;;11.77;2.75;;;;;;;8.91;68.52;101546.66;5013584;28;20104;-78
2021/10/23 09:01:32;;;;;;;10.80;3.08;;;;;;;8.86;69.65;101532.53;5004072;28;20029;-77
2021/10/23 09:03:58;;;;;;;12.48;3.17;;;;;;;8.83;68.85;101542.97;4999764;28;20033;-77
2021/10/23 09:06:40;;;;;;;9.90;2.03;;;;;;;8.91;68.59;101544.91;4998324;28;20445;-77
2021/10/23 09:09:11;;;;;;;11.23;1.90;;;;;;;8.96;68.72;101547.59;5009048;28;21005;-77
2021/10/23 09:11:46;;;;;;;12.40;2.10;;;;;;;9.14;67.95;101550.56;4993569;28;20129;-78
2021/10/23 09:14:35;;;;;;;10.57;2.38;;;;;;;9.31;66.75;101542.03;5003908;28;20056;-77
2021/10/23 09:17:07;;;;;;;10.18;2.67;;;;;;;9.45;66.06;101551.00;5010663;28;20104;-77
2021/10/23 09:19:33;;;;;;;12.85;2.30;;;;;;;9.48;66.14;101558.06;5023698;28;20033;-78
2021/10/23 09:22:00;;;;;;;14.43;1.92;;;;;;;9.44;66.40;101559.78;4997116;28;20401;-77
2021/10/23 09:24:26;;;;;;;7.57;1.92;;;;;;;9.58;66.64;101552.06;5020892;28;20094;-77
2021/10/23 09:26:51;;;;;;;12.15;2.90;;;;;;;9.71;66.35;101572.47;5023503;28;20060;-77
2021/10/23 09:29:20;;;;;;;11.23;2.40;;;;;;;9.52;65.70;101571.31;4996117;28;20056;-78
2021/10/23 09:31:47;;;;;;;11.60;2.00;;;;;;;9.45;65.60;101574.72;5009544;28;20480;-78
2021/10/23 09:34:20;;;;;;;13.85;3.22;;;;;;;9.24;65.26;101609.50;5006000;28;20030;-78
2021/10/23 09:36:49;;;;;;;7.45;2.30;;;;;;;9.25;66.55;101568.25;5010385;28;20029;-78
2021/10/23 09:39:32;;;;;;;16.08;2.22;;;;;;;9.34;66.00;101573.69;5005028;28;20045;-78
2021/10/23 09:42:14;;;;;;;10.05;1.90;;;;;;;9.49;66.33;101575.66;5020019;28;20045;-78
2021/10/23 09:45:02;;;;;;;9.82;1.55;;;;;;;9.55;65.49;101581.03;4999468;28;20061;-77
2021/10/23 09:47:43;;;;;;;9.18;2.35;;;;;;;9.64;64.81;101589.03;5033871;28;20042;-79
2021/10/23 09:50:13;;;;;;;8.63;2.08;;;;;;;9.69;64.45;101579.44;5033371;28;20029;-78
2021/10/23 09:52:58;;;;;;;8.45;2.33;;;;;;;9.81;65.84;101581.38;5028118;28;20037;-79
2021/10/23 09:55:26;;;;;;;11.60;1.73;;;;;;;9.87;64.53;101589.38;5037501;28;20048;-79
2021/10/23 09:58:11;;;;;;;9.48;1.83;;;;;;;10.08;64.14;101583.50;5020251;28;20060;-79
2021/10/23 10:00:38;;;;;;;8.07;2.03;;;;;;;10.02;64.32;101572.88;5033758;28;20037;-79
2021/10/23 10:03:04;;;;;;;14.98;2.60;;;;;;;10.04;64.10;101585.22;5028091;28;20026;-79
2021/10/23 10:05:34;;;;;;;10.75;1.83;;;;;;;10.08;63.70;101608.13;5033631;28;20113;-78
2021/10/23 10:08:18;;;;;;;7.80;1.77;;;;;;;10.13;62.99;101584.44;5022193;28;20046;-79
2021/10/23 10:10:47;;;;;;;7.05;1.58;;;;;;;10.14;63.88;101577.41;5030515;28;20053;-79
2021/10/23 10:13:22;;;;;;;11.15;1.95;;;;;;;10.12;63.02;101592.34;5026026;28;20457;-79
2021/10/23 10:15:49;;;;;;;14.60;2.17;;;;;;;10.26;62.54;101578.44;5031808;28;20064;-78
2021/10/23 10:18:16;;;;;;;9.13;2.13;;;;;;;10.43;62.70;101570.78;5035868;28;20395;-79
2021/10/23 10:21:00;;;;;;;7.03;1.85;;;;;;;10.44;61.09;101574.28;5023903;28;20038;-78
2021/10/23 10:23:32;;;;;;;10.18;2.10;;;;;;;10.54;60.62;101581.44;5014703;28;20037;-79
2021/10/23 10:26:28;;;;;;;10.77;1.85;;;;;;;10.63;60.50;101586.81;5034111;28;20029;-78
2021/10/23 10:29:09;;;;;;;14.38;2.95;;;;;;;10.80;61.43;101579.06;5025227;28;20034;-78
2021/10/23 10:31:53;;;;;;;13.65;2.22;;;;;;;11.13;59.15;101604.00;5020461;28;20034;-79
2021/10/23 10:37:28;;;;;;;7.28;1.77;;;;;;;11.56;59.23;101607.88;5020410;28;20040;-78
2021/10/23 10:42:51;;;;;;;8.55;2.28;;;;;;;11.21;59.38;101604.94;5038351;28;20083;-79
2021/10/23 10:45:47;;;;;;;10.60;2.25;;;;;;;11.26;58.51;101610.28;5037418;28;20642;-79
2021/10/23 10:48:21;;;;;;;16.38;2.15;;;;;;;11.19;57.98;101617.28;5025625;28;20041;-79
2021/10/23 10:50:57;;;;;;;9.27;1.83;;;;;;;11.31;58.69;101622.66;5035705;28;20056;-78
2021/10/23 10:53:25;;;;;;;7.90;1.98;;;;;;;11.40;58.55;101609.53;5039512;28;20092;-79
2021/10/23 10:56:04;;;;;;;9.10;2.00;;;;;;;11.83;58.62;101606.28;5039876;28;20080;-77
2021/10/23 10:58:53;;;;;;;9.43;2.30;;;;;;;11.84;57.65;101606.31;5041583;28;20033;-78
2021/10/23 11:01:29;;;;;;;7.07;1.58;;;;;;;11.99;57.53;101602.88;5029695;28;20037;-79
2021/10/23 11:03:57;;;;;;;9.38;1.65;;;;;;;12.02;56.68;101605.53;5038950;28;20037;-78
2021/10/23 11:06:35;;;;;;;9.13;1.90;;;;;;;11.99;55.79;101620.50;5029489;28;20065;-78
2021/10/23 11:09:16;;;;;;;8.80;1.77;;;;;;;11.78;56.54;101624.75;5027142;28;20034;-78
2021/10/23 11:11:44;;;;;;;8.48;2.10;;;;;;;11.84;56.92;101613.34;5037879;28;20575;-79
2021/10/23 11:14:19;;;;;;;10.77;2.30;;;;;;;11.79;56.50;101607.16;5040793;28;20476;-78
2021/10/23 11:16:44;;;;;;;8.05;1.50;;;;;;;11.57;56.85;101621.97;5036865;28;20030;-79
2021/10/23 11:19:15;;;;;;;9.05;1.63;;;;;;;11.41;57.28;101616.56;5039426;28;20055;-78
2021/10/23 11:21:41;;;;;;;8.70;2.00;;;;;;;11.25;58.19;101632.31;5033760;28;20121;-78
2021/10/23 11:24:06;;;;;;;8.75;2.00;;;;;;;11.20;57.72;101621.69;5039162;28;20041;-78
2021/10/23 11:26:32;;;;;;;7.93;1.95;;;;;;;11.15;58.39;101612.84;5037192;28;20034;-78
2021/10/23 11:28:57;;;;;;;11.25;2.17;;;;;;;11.05;58.72;101627.72;5016273;28;20037;-79
2021/10/23 11:31:23;;;;;;;9.18;2.03;;;;;;;11.27;58.19;101644.66;5040670;28;20041;-79
2021/10/23 11:33:50;;;;;;;12.15;2.22;;;;;;;11.29;58.88;101642.94;5040148;28;20029;-78